Time;durP1;ratioP1;P1;durP2;ratioP2;P2;SDS_P1;SDS_P2;PMS_P1;PMS_P2;Temp;Humidity;BMP_temperature;BMP_pressure;BME280_temperature;BME280_humidity;BME280_pressure;Samples;Min_cycle;Max_cycle;Signal;HPM_P1;HPM_P2
2023/11/17 00:02:19;;;;;;;8.63;7.07;;;6.30;99.90;;;;;;5071064;28;20777;-64
2023/11/17 00:04:46;;;;;;;7.88;7.18;;;6.30;99.90;;;;;;5070425;28;20588;-64
2023/11/17 00:07:14;;;;;;;10.77;7.40;;;6.30;99.90;;;;;;5070393;28;20214;-65
2023/11/17 00:09:41;;;;;;;12.05;7.00;;;6.30;99.90;;;;;;5069678;28;20317;-65
2023/11/17 00:12:08;;;;;;;8.73;7.00;;;6.30;99.90;;;;;;5092628;22;20208;-65
2023/11/17 00:14:36;;;;;;;8.25;6.47;;;6.30;99.90;;;;;;5043791;28;20640;-65
2023/11/17 00:17:04;;;;;;;7.75;6.22;;;6.40;99.90;;;;;;5042833;28;20237;-65
2023/11/17 00:19:30;;;;;;;8.65;6.25;;;6.40;99.90;;;;;;5048841;28;20218;-65
2023/11/17 00:21:58;;;;;;;10.43;8.10;;;6.40;99.90;;;;;;5049924;28;20202;-64
2023/11/17 00:24:26;;;;;;;7.43;6.63;;;6.40;99.90;;;;;;5048951;28;20222;-65
2023/11/17 00:26:53;;;;;;;14.70;7.80;;;6.40;99.90;;;;;;5042021;28;20589;-65
2023/11/17 00:29:20;;;;;;;8.45;7.40;;;6.40;99.90;;;;;;5049881;28;20209;-64
2023/11/17 00:31:47;;;;;;;12.77;9.27;;;6.50;99.90;;;;;;5051306;28;20591;-65
2023/11/17 00:34:14;;;;;;;8.15;7.35;;;6.50;99.90;;;;;;5050733;28;20222;-64
2023/11/17 00:36:44;;;;;;;13.02;8.50;;;6.50;99.90;;;;;;5050497;28;20214;-65
2023/11/17 00:39:14;;;;;;;14.13;12.10;;;6.50;99.90;;;;;;5050217;28;20298;-65
2023/11/17 00:41:43;;;;;;;17.60;11.88;;;6.60;99.90;;;;;;5050775;28;20218;-65
2023/11/17 00:44:10;;;;;;;13.90;11.93;;;6.60;99.90;;;;;;5050369;28;20288;-64
2023/11/17 00:46:37;;;;;;;20.13;13.57;;;6.60;99.90;;;;;;5050779;28;20206;-65
2023/11/17 00:49:04;;;;;;;13.80;12.27;;;6.70;99.90;;;;;;5050546;28;20758;-64
2023/11/17 00:51:33;;;;;;;16.48;12.90;;;6.70;99.90;;;;;;5049864;28;20206;-64
2023/11/17 00:54:04;;;;;;;21.65;14.80;;;6.70;99.90;;;;;;5049816;28;20336;-65
2023/11/17 00:56:31;;;;;;;19.13;13.00;;;6.70;99.90;;;;;;5049896;28;20208;-64
2023/11/17 00:59:00;;;;;;;19.33;12.32;;;6.70;99.90;;;;;;5049715;28;20761;-65
2023/11/17 01:01:27;;;;;;;13.35;10.23;;;6.80;99.90;;;;;;5049952;28;20673;-65
2023/11/17 01:03:54;;;;;;;16.17;11.00;;;6.80;99.90;;;;;;5049654;28;20305;-65
2023/11/17 01:06:21;;;;;;;18.40;11.13;;;6.80;99.90;;;;;;5054096;28;20298;-65
2023/11/17 01:08:48;;;;;;;11.18;9.20;;;6.80;99.90;;;;;;5054250;28;20198;-65
2023/11/17 01:11:14;;;;;;;13.48;9.30;;;6.80;99.90;;;;;;5054500;28;20202;-64
2023/11/17 01:13:41;;;;;;;13.90;9.10;;;6.90;99.90;;;;;;5053268;28;20226;-65
2023/11/17 01:16:09;;;;;;;9.30;8.02;;;6.80;99.90;;;;;;5053315;28;20461;-64
2023/11/17 01:18:36;;;;;;;12.05;9.55;;;6.90;99.90;;;;;;5054467;28;20628;-64
2023/11/17 01:21:05;;;;;;;13.88;8.77;;;6.90;99.90;;;;;;5052919;28;20587;-64
2023/11/17 01:23:32;;;;;;;13.50;9.80;;;6.90;99.90;;;;;;5053185;28;20218;-64
2023/11/17 01:25:59;;;;;;;12.75;8.35;;;6.90;99.90;;;;;;5053615;28;20202;-65
2023/11/17 01:28:26;;;;;;;10.27;9.27;;;6.90;99.90;;;;;;5053527;28;20704;-64
2023/11/17 01:30:52;;;;;;;13.98;8.88;;;6.90;99.90;;;;;;5044828;28;20213;-64
2023/11/17 01:33:21;;;;;;;16.70;9.55;;;6.90;99.90;;;;;;5051445;28;20222;-64
2023/11/17 01:35:49;;;;;;;13.40;8.68;;;6.90;99.90;;;;;;5051614;28;20206;-64
2023/11/17 01:38:16;;;;;;;16.20;10.52;;;6.90;99.90;;;;;;5052128;28;20260;-64
2023/11/17 01:40:42;;;;;;;15.20;12.85;;;6.90;99.90;;;;;;5052581;28;20205;-64
2023/11/17 01:43:11;;;;;;;15.95;11.48;;;6.90;99.90;;;;;;5053484;28;20256;-64
2023/11/17 01:45:39;;;;;;;20.17;13.32;;;6.90;99.90;;;;;;5053460;28;20207;-64
2023/11/17 01:48:08;;;;;;;12.23;9.70;;;6.90;99.90;;;;;;5053443;28;20253;-64
2023/11/17 01:50:36;;;;;;;13.25;9.93;;;6.90;99.90;;;;;;5053595;28;20210;-65
2023/11/17 01:53:03;;;;;;;10.02;9.02;;;6.90;99.90;;;;;;5053445;28;20313;-64
2023/11/17 01:55:30;;;;;;;19.27;11.02;;;6.90;99.90;;;;;;5053020;28;20652;-64
2023/11/17 01:57:58;;;;;;;11.75;10.55;;;6.90;99.90;;;;;;5053744;28;20198;-64
2023/11/17 02:00:25;;;;;;;10.57;9.55;;;6.90;99.90;;;;;;5053299;28;20215;-65
2023/11/17 02:02:53;;;;;;;14.30;10.98;;;6.90;99.90;;;;;;5047736;28;20222;-64
2023/11/17 02:05:22;;;;;;;16.83;10.70;;;6.90;99.90;;;;;;5053590;28;20226;-64
2023/11/17 02:08:12;;;;;;;16.05;11.45;;;6.90;99.90;;;;;;5052903;28;20584;-64
2023/11/17 02:10:48;;;;;;;11.70;9.75;;;6.90;99.90;;;;;;5052418;28;20207;-65
2023/11/17 02:13:24;;;;;;;12.57;9.20;;;6.90;99.90;;;;;;5053330;28;20325;-64
2023/11/17 02:15:54;;;;;;;11.40;10.20;;;6.90;99.90;;;;;;5052422;28;20213;-64
2023/11/17 02:18:22;;;;;;;12.73;9.80;;;6.90;99.90;;;;;;5053400;28;20206;-64
2023/11/17 02:20:52;;;;;;;13.50;10.07;;;6.80;99.90;;;;;;5052950;28;20209;-64
2023/11/17 02:23:24;;;;;;;14.63;8.70;;;6.90;99.90;;;;;;5053224;28;20272;-64
2023/11/17 02:26:02;;;;;;;11.85;10.18;;;6.90;99.90;;;;;;5052685;28;20204;-64
2023/11/17 02:28:43;;;;;;;12.65;8.70;;;6.80;99.90;;;;;;5053063;28;20209;-64
2023/11/17 02:31:15;;;;;;;10.73;9.20;;;6.80;99.90;;;;;;5053267;28;20205;-64
2023/11/17 02:33:45;;;;;;;12.43;10.25;;;6.80;99.90;;;;;;5053253;28;20221;-64
2023/11/17 02:36:17;;;;;;;13.90;9.38;;;6.80;99.90;;;;;;5052850;28;20218;-64
2023/11/17 02:38:51;;;;;;;11.20;9.35;;;6.90;99.90;;;;;;5053316;28;20207;-64
2023/11/17 02:41:29;;;;;;;10.52;9.48;;;6.80;99.90;;;;;;5053257;28;20640;-64
2023/11/17 02:43:57;;;;;;;11.02;8.60;;;6.80;99.90;;;;;;5045193;28;20295;-64
2023/11/17 02:46:27;;;;;;;10.70;8.90;;;6.80;99.90;;;;;;5052580;28;20210;-64
2023/11/17 02:48:55;;;;;;;10.23;9.05;;;6.80;99.90;;;;;;5053197;28;20210;-64
2023/11/17 02:51:27;;;;;;;11.65;9.50;;;6.80;99.90;;;;;;5053067;28;20211;-64
2023/11/17 02:53:55;;;;;;;9.70;8.73;;;6.80;99.90;;;;;;5052852;28;20214;-64
2023/11/17 02:56:22;;;;;;;10.55;9.55;;;6.80;99.90;;;;;;5052685;28;20202;-64
2023/11/17 02:58:54;;;;;;;12.77;9.23;;;6.80;99.90;;;;;;5052816;28;20677;-64
2023/11/17 03:01:21;;;;;;;12.10;9.90;;;6.80;99.90;;;;;;5053131;28;20242;-64
2023/11/17 03:03:49;;;;;;;11.98;9.90;;;6.80;99.90;;;;;;5052877;28;20309;-64
2023/11/17 03:06:15;;;;;;;10.77;9.68;;;6.90;99.90;;;;;;5052636;28;20210;-64
2023/11/17 03:08:42;;;;;;;14.40;9.98;;;6.90;99.90;;;;;;5052673;28;20763;-64
2023/11/17 03:11:10;;;;;;;19.75;11.20;;;6.90;99.90;;;;;;5052643;28;20210;-64
2023/11/17 03:13:37;;;;;;;13.20;9.73;;;6.80;99.90;;;;;;5052016;28;20235;-64
2023/11/17 03:16:04;;;;;;;11.65;8.80;;;6.80;99.90;;;;;;5052335;28;20595;-64
2023/11/17 03:18:38;;;;;;;11.57;9.18;;;6.80;99.90;;;;;;5052488;28;20294;-64
2023/11/17 03:21:06;;;;;;;14.60;10.15;;;6.80;99.90;;;;;;5052750;28;20217;-64
2023/11/17 03:23:33;;;;;;;12.80;10.40;;;6.80;99.90;;;;;;5052131;28;20253;-64
2023/11/17 03:26:00;;;;;;;11.80;9.30;;;6.80;99.90;;;;;;5052281;28;20302;-64
2023/11/17 03:28:26;;;;;;;10.23;9.32;;;6.80;99.90;;;;;;5052403;28;20202;-64
2023/11/17 03:30:55;;;;;;;11.10;8.57;;;6.70;99.90;;;;;;5052506;28;20328;-64
2023/11/17 03:33:22;;;;;;;12.73;9.90;;;6.70;99.90;;;;;;5052185;28;20993;-64
2023/11/17 03:35:50;;;;;;;10.65;8.80;;;6.60;99.90;;;;;;5052212;28;20294;-64
2023/11/17 03:38:18;;;;;;;8.85;7.85;;;6.70;99.90;;;;;;5051848;28;20206;-64
2023/11/17 03:40:45;;;;;;;9.35;8.45;;;6.60;99.90;;;;;;5052407;28;20206;-64
2023/11/17 03:43:13;;;;;;;9.32;7.78;;;6.60;99.90;;;;;;5051961;28;20806;-64
2023/11/17 03:45:44;;;;;;;11.25;8.68;;;6.60;99.90;;;;;;5051933;28;20226;-64
2023/11/17 03:48:10;;;;;;;10.55;9.18;;;6.60;99.90;;;;;;5051976;28;20598;-64
2023/11/17 03:50:38;;;;;;;13.73;9.27;;;6.50;99.90;;;;;;5051156;28;20214;-64
2023/11/17 03:53:05;;;;;;;10.30;7.80;;;6.50;99.90;;;;;;5051477;28;20317;-64
2023/11/17 03:55:33;;;;;;;10.07;8.82;;;6.50;99.90;;;;;;5051795;28;20233;-64
2023/11/17 03:58:00;;;;;;;12.20;9.57;;;6.40;99.90;;;;;;5051570;28;20201;-64
2023/11/17 04:00:28;;;;;;;9.25;8.35;;;6.40;99.90;;;;;;5051725;28;20206;-64
2023/11/17 04:02:57;;;;;;;10.00;8.90;;;6.40;99.90;;;;;;5051811;28;20226;-64
2023/11/17 04:05:25;;;;;;;12.27;8.68;;;6.40;99.90;;;;;;5051368;28;20222;-64
2023/11/17 04:07:55;;;;;;;12.55;8.55;;;6.40;99.90;;;;;;5051564;28;20206;-64
2023/11/17 04:10:23;;;;;;;9.68;8.30;;;6.40;99.90;;;;;;5052093;28;20688;-64
2023/11/17 04:12:51;;;;;;;9.40;8.30;;;6.30;99.90;;;;;;5051296;28;20238;-64
2023/11/17 04:15:19;;;;;;;10.75;8.60;;;6.30;99.90;;;;;;5051488;28;20213;-64
2023/11/17 04:17:46;;;;;;;11.75;9.45;;;6.30;99.90;;;;;;5051324;28;20202;-64
2023/11/17 04:20:14;;;;;;;10.35;8.10;;;6.30;99.90;;;;;;5050416;28;20205;-65
2023/11/17 04:22:41;;;;;;;11.27;8.43;;;6.30;99.90;;;;;;5050903;28;20230;-64
2023/11/17 04:25:09;;;;;;;11.82;8.77;;;6.30;99.90;;;;;;5051245;28;20227;-64
2023/11/17 04:27:38;;;;;;;9.88;7.10;;;6.30;99.90;;;;;;5051367;28;20218;-64
2023/11/17 04:30:08;;;;;;;14.52;9.60;;;6.30;99.90;;;;;;5051499;28;20218;-64
2023/11/17 04:32:35;;;;;;;9.68;8.55;;;6.30;99.90;;;;;;5051370;28;20279;-64
2023/11/17 04:35:03;;;;;;;8.50;7.68;;;6.20;99.90;;;;;;5051641;28;20217;-64
2023/11/17 04:37:30;;;;;;;10.80;7.63;;;6.30;99.90;;;;;;5051336;28;20222;-64
2023/11/17 04:39:57;;;;;;;14.27;10.32;;;6.20;99.90;;;;;;5051216;28;20206;-64
2023/11/17 04:42:24;;;;;;;8.85;7.90;;;6.20;99.90;;;;;;5051152;28;20787;-64
2023/11/17 04:44:51;;;;;;;10.15;7.60;;;6.20;99.90;;;;;;5051390;28;20225;-64
2023/11/17 04:47:19;;;;;;;10.65;7.38;;;6.20;99.90;;;;;;5050951;28;20206;-64
2023/11/17 04:49:46;;;;;;;8.52;7.40;;;6.20;99.90;;;;;;5051682;28;20669;-64
2023/11/17 04:52:13;;;;;;;8.15;6.88;;;6.20;99.90;;;;;;5051325;28;20217;-64
2023/11/17 04:54:40;;;;;;;7.07;6.38;;;6.10;99.90;;;;;;5051172;28;20702;-64
2023/11/17 04:57:08;;;;;;;10.85;9.75;;;6.10;99.90;;;;;;5051049;28;20206;-64
2023/11/17 04:59:35;;;;;;;12.55;6.63;;;6.00;99.90;;;;;;5051168;28;20273;-64
2023/11/17 05:02:03;;;;;;;8.15;7.43;;;6.00;99.90;;;;;;5051483;28;20210;-64
2023/11/17 05:04:31;;;;;;;12.50;7.70;;;6.00;99.90;;;;;;5051017;28;20295;-64
2023/11/17 05:06:58;;;;;;;10.65;6.32;;;5.90;99.90;;;;;;5050794;28;20206;-64
2023/11/17 05:09:25;;;;;;;8.10;6.97;;;5.90;99.90;;;;;;5051265;28;20208;-64
2023/11/17 05:11:52;;;;;;;8.88;7.82;;;5.90;99.90;;;;;;5050721;28;20202;-64
2023/11/17 05:14:19;;;;;;;9.70;8.80;;;5.90;99.90;;;;;;5050705;28;20238;-64
2023/11/17 05:16:46;;;;;;;9.40;7.35;;;5.80;99.90;;;;;;5050904;28;20256;-64
2023/11/17 05:19:14;;;;;;;8.90;7.65;;;5.80;99.90;;;;;;5051148;28;20217;-64
2023/11/17 05:21:43;;;;;;;12.18;9.48;;;5.80;99.90;;;;;;5051229;28;20242;-64
2023/11/17 05:24:10;;;;;;;7.47;6.60;;;5.80;99.90;;;;;;5050922;28;20233;-64
2023/11/17 05:26:36;;;;;;;9.93;8.95;;;5.80;99.90;;;;;;5050752;28;20293;-64
2023/11/17 05:29:05;;;;;;;8.95;7.78;;;5.80;99.90;;;;;;5050743;28;20228;-64
2023/11/17 05:31:31;;;;;;;9.57;7.55;;;5.70;99.90;;;;;;5050645;28;20207;-64
2023/11/17 05:33:58;;;;;;;9.35;8.18;;;5.70;99.90;;;;;;5050857;28;20739;-64
2023/11/17 05:36:25;;;;;;;14.52;9.23;;;5.70;99.90;;;;;;5050595;28;20202;-64
2023/11/17 05:38:55;;;;;;;11.10;8.40;;;5.70;99.90;;;;;;5050949;28;20202;-64
2023/11/17 05:41:23;;;;;;;11.95;9.02;;;5.70;99.90;;;;;;5050860;28;20300;-64
2023/11/17 05:43:50;;;;;;;13.35;8.93;;;5.70;99.90;;;;;;5050887;28;20237;-64
2023/11/17 05:46:17;;;;;;;12.25;9.65;;;5.70;99.90;;;;;;5050734;28;20230;-64
2023/11/17 05:48:43;;;;;;;13.40;8.90;;;5.70;99.90;;;;;;5050546;28;20695;-64
2023/11/17 05:51:11;;;;;;;9.60;8.57;;;5.70;99.90;;;;;;5051551;28;20210;-64
2023/11/17 05:53:38;;;;;;;9.52;7.20;;;5.70;99.90;;;;;;5054420;28;20236;-64
2023/11/17 05:56:08;;;;;;;9.48;8.57;;;5.70;99.90;;;;;;5053911;28;20210;-64
2023/11/17 05:58:35;;;;;;;8.23;7.40;;;5.70;99.90;;;;;;5054383;28;20202;-64
2023/11/17 06:01:03;;;;;;;6.75;6.15;;;5.70;99.90;;;;;;5054314;28;20201;-64
2023/11/17 06:03:29;;;;;;;9.25;6.32;;;5.60;99.90;;;;;;5054202;28;20233;-64
2023/11/17 06:05:56;;;;;;;9.10;6.90;;;5.60;99.90;;;;;;5053809;28;20233;-64
2023/11/17 06:08:23;;;;;;;5.93;5.32;;;5.50;99.90;;;;;;5053846;28;20218;-64
2023/11/17 06:10:50;;;;;;;7.25;6.55;;;5.40;99.90;;;;;;5054026;28;20712;-64
2023/11/17 06:13:18;;;;;;;7.28;6.55;;;5.40;99.90;;;;;;5053746;28;20328;-64
2023/11/17 06:15:45;;;;;;;10.48;6.38;;;5.30;99.90;;;;;;5054034;28;20209;-64
2023/11/17 06:18:13;;;;;;;7.47;6.03;;;5.30;99.90;;;;;;5053837;28;20211;-64
2023/11/17 06:20:40;;;;;;;8.15;7.07;;;5.20;99.90;;;;;;5075694;22;20234;-64
2023/11/17 06:23:08;;;;;;;9.23;6.22;;;5.20;99.90;;;;;;5053654;28;20214;-64
2023/11/17 06:25:35;;;;;;;6.05;5.45;;;5.10;99.90;;;;;;5053638;28;20619;-65
2023/11/17 06:28:03;;;;;;;9.30;7.07;;;5.00;99.90;;;;;;5053520;28;20234;-64
2023/11/17 06:30:32;;;;;;;6.97;6.18;;;5.00;99.90;;;;;;5053514;28;20704;-65
2023/11/17 06:32:59;;;;;;;11.05;6.75;;;4.90;99.90;;;;;;5053403;28;20217;-64
2023/11/17 06:35:25;;;;;;;6.35;5.65;;;4.80;99.90;;;;;;5053324;28;20209;-65
2023/11/17 06:37:52;;;;;;;9.73;6.13;;;4.80;99.90;;;;;;5053007;28;20672;-64
2023/11/17 06:40:19;;;;;;;7.78;6.57;;;4.70;99.90;;;;;;5053410;28;20226;-65
2023/11/17 06:42:46;;;;;;;5.75;5.22;;;4.70;99.90;;;;;;5053222;28;20210;-65
2023/11/17 06:45:13;;;;;;;8.88;6.88;;;4.60;99.90;;;;;;5053075;28;20222;-65
2023/11/17 06:47:43;;;;;;;8.85;6.68;;;4.60;99.90;;;;;;5051775;28;20210;-64
2023/11/17 06:50:12;;;;;;;12.30;5.90;;;4.60;99.90;;;;;;5051326;28;20223;-65
2023/11/17 06:52:39;;;;;;;8.35;7.25;;;4.50;99.90;;;;;;5052490;28;20228;-65
2023/11/17 06:55:06;;;;;;;8.52;5.72;;;4.50;99.90;;;;;;5052620;28;20202;-65
2023/11/17 06:57:33;;;;;;;10.63;6.28;;;4.50;99.90;;;;;;5052283;28;20293;-65
2023/11/17 07:00:00;;;;;;;8.55;7.20;;;4.50;99.90;;;;;;5052643;28;20226;-63
2023/11/17 07:02:29;;;;;;;6.38;5.75;;;4.50;99.90;;;;;;5052277;28;20294;-65
2023/11/17 07:04:57;;;;;;;7.32;5.80;;;4.50;99.90;;;;;;5052008;28;20221;-65
2023/11/17 07:07:24;;;;;;;8.68;6.78;;;4.50;99.90;;;;;;5052174;28;20842;-64
2023/11/17 07:09:51;;;;;;;9.57;6.75;;;4.50;99.90;;;;;;5052722;28;20596;-65
2023/11/17 07:12:19;;;;;;;7.07;5.93;;;4.50;99.90;;;;;;5052585;28;20214;-64
2023/11/17 07:14:47;;;;;;;7.30;6.60;;;4.50;99.90;;;;;;5052326;28;20245;-64
2023/11/17 07:17:15;;;;;;;7.68;5.88;;;4.50;99.90;;;;;;5052104;28;20210;-64
2023/11/17 07:19:43;;;;;;;8.05;6.53;;;4.50;99.90;;;;;;5052033;28;20670;-63
2023/11/17 07:22:13;;;;;;;6.93;6.32;;;4.50;99.90;;;;;;5053043;28;20206;-65
2023/11/17 07:24:40;;;;;;;7.03;5.78;;;4.50;99.90;;;;;;5052244;28;20206;-65
2023/11/17 07:27:11;;;;;;;10.90;6.03;;;4.50;99.90;;;;;;5052191;28;20297;-65
2023/11/17 07:29:38;;;;;;;7.22;6.53;;;4.50;99.90;;;;;;5052498;28;20611;-65
2023/11/17 07:32:05;;;;;;;6.82;5.50;;;4.50;99.90;;;;;;5052168;28;20209;-65
2023/11/17 07:34:32;;;;;;;6.97;6.25;;;4.50;99.90;;;;;;5052352;28;20299;-64
2023/11/17 07:36:59;;;;;;;7.53;6.82;;;4.50;99.90;;;;;;5051876;28;20199;-65
2023/11/17 07:39:27;;;;;;;7.93;5.70;;;4.50;99.90;;;;;;5051976;28;20227;-65
2023/11/17 07:41:54;;;;;;;10.10;6.93;;;4.60;99.90;;;;;;5051877;28;20206;-64
2023/11/17 07:44:21;;;;;;;7.63;6.13;;;4.60;99.90;;;;;;5051658;28;20566;-65
2023/11/17 07:46:48;;;;;;;7.90;6.78;;;4.60;99.90;;;;;;5051226;28;20234;-65
2023/11/17 07:49:15;;;;;;;7.57;6.65;;;4.70;99.90;;;;;;5051499;28;20728;-64
2023/11/17 07:51:42;;;;;;;7.50;6.50;;;4.70;99.90;;;;;;5049614;28;20217;-65
2023/11/17 07:54:11;;;;;;;8.65;7.18;;;4.80;99.90;;;;;;5051403;28;20225;-64
2023/11/17 07:56:40;;;;;;;8.32;7.35;;;4.90;99.90;;;;;;5051314;28;20206;-65
2023/11/17 07:59:10;;;;;;;8.77;7.90;;;4.90;99.90;;;;;;5051193;28;20249;-65
2023/11/17 08:01:37;;;;;;;10.95;9.60;;;5.00;99.90;;;;;;5051519;28;20284;-64
2023/11/17 08:04:05;;;;;;;9.05;7.40;;;5.10;99.90;;;;;;5051367;28;20551;-65
2023/11/17 08:06:32;;;;;;;9.13;8.05;;;5.20;99.90;;;;;;5050992;28;20265;-64
2023/11/17 08:08:59;;;;;;;10.40;8.90;;;5.20;99.90;;;;;;5051195;28;20206;-65
2023/11/17 08:11:26;;;;;;;9.32;8.00;;;5.30;99.90;;;;;;5051336;28;20210;-65
2023/11/17 08:13:54;;;;;;;10.10;9.05;;;5.40;99.90;;;;;;5050368;28;20681;-64
2023/11/17 08:16:21;;;;;;;10.95;9.35;;;5.50;99.90;;;;;;5050950;28;20198;-64
2023/11/17 08:18:49;;;;;;;12.20;10.90;;;5.60;99.90;;;;;;5050401;28;20268;-64
2023/11/17 08:21:16;;;;;;;12.18;10.82;;;5.70;99.90;;;;;;5050274;28;20746;-65
2023/11/17 08:23:44;;;;;;;10.90;9.10;;;5.80;99.90;;;;;;5050707;28;20757;-65
2023/11/17 08:26:14;;;;;;;9.95;8.95;;;5.90;99.90;;;;;;5048974;28;20222;-65
2023/11/17 08:28:41;;;;;;;11.40;9.45;;;6.00;99.90;;;;;;5050514;28;20206;-65
2023/11/17 08:31:12;;;;;;;9.85;8.88;;;6.10;99.90;;;;;;5050253;28;20226;-64
2023/11/17 08:33:39;;;;;;;12.25;10.90;;;6.20;99.90;;;;;;5050708;28;20220;-65
2023/11/17 08:36:09;;;;;;;15.65;9.93;;;6.30;99.90;;;;;;5050918;28;20630;-64
2023/11/17 08:38:41;;;;;;;9.65;8.45;;;6.40;99.90;;;;;;5049901;28;20213;-65
2023/11/17 08:41:10;;;;;;;11.07;7.80;;;6.50;99.90;;;;;;5050594;28;20227;-63
2023/11/17 08:43:37;;;;;;;13.75;9.68;;;6.50;99.90;;;;;;5050478;28;20741;-65
2023/11/17 08:46:06;;;;;;;9.63;7.53;;;6.60;99.90;;;;;;5050018;28;20233;-65
2023/11/17 08:48:34;;;;;;;9.10;7.30;;;6.70;99.90;;;;;;5050502;28;20666;-64
2023/11/17 08:51:02;;;;;;;8.82;7.93;;;6.80;99.90;;;;;;5049777;28;20580;-65
2023/11/17 08:53:29;;;;;;;7.97;6.55;;;6.90;99.90;;;;;;5050292;28;20563;-64
2023/11/17 08:55:55;;;;;;;9.50;8.20;;;6.90;99.90;;;;;;5049672;28;20281;-65
2023/11/17 08:58:23;;;;;;;10.20;9.27;;;7.00;99.90;;;;;;5050121;28;20198;-65
2023/11/17 09:00:50;;;;;;;9.65;8.70;;;7.10;99.90;;;;;;5050292;28;20234;-63
2023/11/17 09:03:17;;;;;;;7.63;6.85;;;7.10;99.90;;;;;;5048812;28;20195;-64
2023/11/17 09:05:46;;;;;;;8.40;7.60;;;7.20;99.90;;;;;;5049498;28;20248;-64
2023/11/17 09:08:13;;;;;;;8.35;7.55;;;7.30;99.90;;;;;;5049597;28;20285;-65
2023/11/17 09:10:40;;;;;;;11.32;8.25;;;7.20;99.90;;;;;;5043784;28;20585;-64
2023/11/17 09:13:08;;;;;;;7.82;7.00;;;7.30;99.90;;;;;;5048200;28;20233;-64
2023/11/17 09:15:38;;;;;;;7.85;7.07;;;7.30;99.90;;;;;;5048642;28;20245;-64
2023/11/17 09:18:07;;;;;;;7.75;7.00;;;7.40;99.90;;;;;;5049138;28;20272;-64
2023/11/17 09:20:36;;;;;;;8.80;7.88;;;7.40;99.90;;;;;;5049210;28;20696;-64
2023/11/17 09:23:06;;;;;;;12.65;7.80;;;7.50;99.90;;;;;;5049353;28;20245;-64
2023/11/17 09:25:33;;;;;;;11.52;7.68;;;7.60;99.90;;;;;;5050961;28;20206;-65
2023/11/17 09:28:02;;;;;;;8.88;7.47;;;7.60;99.90;;;;;;5052727;28;20225;-65
2023/11/17 09:30:30;;;;;;;7.93;7.13;;;7.70;99.90;;;;;;5052937;28;20274;-63
2023/11/17 09:32:58;;;;;;;8.75;7.68;;;7.70;99.90;;;;;;5052402;28;20206;-64
2023/11/17 09:35:27;;;;;;;10.02;8.00;;;7.80;99.90;;;;;;5052924;28;20238;-64
2023/11/17 09:37:55;;;;;;;6.88;6.20;;;7.80;99.90;;;;;;5053137;28;20594;-64
2023/11/17 09:40:24;;;;;;;8.38;7.57;;;7.80;99.90;;;;;;5053189;28;20226;-64
2023/11/17 09:42:52;;;;;;;7.13;6.55;;;7.70;99.90;;;;;;5052932;28;20702;-64
2023/11/17 09:45:21;;;;;;;8.68;6.68;;;7.70;99.90;;;;;;5052751;28;20249;-65
2023/11/17 09:48:18;;;;;;;6.65;5.63;;;7.70;99.90;;;;;;5052852;28;20230;-65
2023/11/17 09:50:46;;;;;;;6.93;6.22;;;7.70;99.90;;;;;;5053026;28;20227;-65
2023/11/17 09:53:14;;;;;;;6.53;5.57;;;7.70;99.90;;;;;;5050521;28;20206;-64
2023/11/17 09:55:43;;;;;;;6.95;6.07;;;7.70;99.90;;;;;;5052250;28;20202;-63
2023/11/17 09:58:12;;;;;;;8.65;6.15;;;7.80;99.90;;;;;;5052030;28;20229;-64
2023/11/17 10:00:41;;;;;;;16.13;8.27;;;7.80;99.90;;;;;;5052865;28;20637;-65
2023/11/17 10:03:10;;;;;;;5.88;5.28;;;7.90;99.90;;;;;;5052608;28;20199;-64
2023/11/17 10:05:38;;;;;;;9.07;8.25;;;7.90;99.90;;;;;;5052618;28;20202;-65
2023/11/17 10:08:06;;;;;;;8.55;7.75;;;7.90;99.90;;;;;;5051983;28;20942;-65
2023/11/17 10:10:37;;;;;;;9.90;6.05;;;8.00;99.90;;;;;;5052140;28;20218;-65
2023/11/17 10:13:11;;;;;;;6.53;6.03;;;8.00;99.90;;;;;;5052730;28;20798;-64
2023/11/17 10:15:39;;;;;;;7.57;6.32;;;8.00;99.90;;;;;;5052536;28;20746;-64
2023/11/17 10:18:07;;;;;;;8.57;7.10;;;8.10;99.90;;;;;;5052345;28;20207;-65
2023/11/17 10:20:35;;;;;;;8.88;6.68;;;8.10;99.90;;;;;;5052111;28;20222;-63
2023/11/17 10:23:04;;;;;;;7.45;6.55;;;8.10;99.90;;;;;;5052272;28;20230;-65
2023/11/17 10:25:32;;;;;;;6.35;5.40;;;8.20;99.90;;;;;;5052361;28;20203;-65
2023/11/17 10:28:00;;;;;;;6.50;5.15;;;8.20;99.90;;;;;;5052169;28;20226;-65
2023/11/17 10:30:30;;;;;;;5.32;4.82;;;8.30;99.90;;;;;;5052523;28;20228;-65
2023/11/17 10:33:02;;;;;;;6.00;5.40;;;8.30;99.90;;;;;;5053078;28;20202;-65
2023/11/17 10:35:31;;;;;;;4.50;4.10;;;8.30;99.90;;;;;;5052495;28;20645;-64
2023/11/17 10:37:58;;;;;;;5.07;4.65;;;8.40;99.90;;;;;;5051859;28;20828;-65
2023/11/17 10:40:28;;;;;;;6.95;4.72;;;8.40;99.90;;;;;;5036356;28;20218;-65
2023/11/17 10:43:07;;;;;;;6.07;5.22;;;8.40;99.90;;;;;;5052567;28;20203;-64
2023/11/17 10:45:36;;;;;;;4.78;4.45;;;8.50;99.90;;;;;;5052105;28;20206;-64
2023/11/17 10:48:06;;;;;;;5.55;5.15;;;8.50;99.90;;;;;;5051928;28;20226;-64
2023/11/17 10:50:34;;;;;;;5.10;4.70;;;8.50;99.90;;;;;;5052436;28;20223;-64
2023/11/17 10:53:19;;;;;;;5.15;3.47;;;8.50;99.90;;;;;;5052370;28;20449;-64
2023/11/17 10:55:48;;;;;;;4.10;3.70;;;8.60;99.90;;;;;;5052210;28;20590;-65
2023/11/17 10:58:16;;;;;;;4.45;3.67;;;8.60;99.90;;;;;;5051813;28;20448;-64
2023/11/17 11:00:45;;;;;;;6.15;4.32;;;8.60;99.90;;;;;;5052147;28;20591;-64
2023/11/17 11:03:13;;;;;;;2.72;2.50;;;8.60;99.90;;;;;;5052016;28;20728;-63
2023/11/17 11:05:42;;;;;;;7.82;3.20;;;8.50;99.90;;;;;;5051197;28;20221;-65
2023/11/17 11:08:13;;;;;;;4.28;3.05;;;8.60;99.90;;;;;;5051472;28;20226;-64
2023/11/17 11:10:50;;;;;;;5.30;3.20;;;8.60;99.90;;;;;;5051815;28;20264;-64
2023/11/17 11:13:17;;;;;;;3.10;2.30;;;8.60;99.90;;;;;;5051968;28;20202;-64
2023/11/17 11:15:47;;;;;;;3.17;2.38;;;8.60;99.90;;;;;;5051798;28;20198;-65
2023/11/17 11:18:16;;;;;;;4.03;3.38;;;8.60;99.90;;;;;;5051207;28;20207;-64
2023/11/17 11:20:46;;;;;;;3.95;3.55;;;8.70;99.90;;;;;;5051384;28;20226;-63
2023/11/17 11:23:15;;;;;;;3.90;3.60;;;8.70;99.90;;;;;;5051252;28;20206;-64
2023/11/17 11:25:44;;;;;;;4.18;3.88;;;8.70;99.90;;;;;;5050703;28;20445;-64
2023/11/17 11:28:12;;;;;;;4.00;3.60;;;8.70;99.90;;;;;;5051205;28;20218;-64
2023/11/17 11:30:41;;;;;;;3.57;3.23;;;8.60;99.90;;;;;;5051108;28;20465;-64
2023/11/17 11:33:10;;;;;;;3.73;3.40;;;8.70;99.90;;;;;;5051511;28;20445;-64
2023/11/17 11:35:37;;;;;;;9.43;4.20;;;8.70;99.90;;;;;;5051198;28;20445;-64
2023/11/17 11:38:08;;;;;;;5.97;4.53;;;8.70;99.90;;;;;;5051033;28;20528;-64
2023/11/17 11:40:37;;;;;;;3.27;2.97;;;8.60;99.90;;;;;;5051537;28;20552;-64
2023/11/17 11:43:04;;;;;;;4.13;3.38;;;8.60;99.90;;;;;;5051509;28;20881;-65
2023/11/17 11:45:34;;;;;;;3.17;2.93;;;8.60;99.90;;;;;;5051357;28;20218;-64
2023/11/17 11:48:01;;;;;;;3.80;3.50;;;8.60;99.90;;;;;;5050608;28;20484;-64
2023/11/17 11:50:37;;;;;;;3.63;3.33;;;8.60;99.90;;;;;;5050258;28;20228;-64
2023/11/17 11:53:28;;;;;;;4.90;4.40;;;8.50;99.90;;;;;;5051460;28;20229;-65
2023/11/17 11:56:02;;;;;;;7.05;4.88;;;8.60;99.90;;;;;;5051055;28;20463;-64
2023/11/17 11:58:29;;;;;;;4.40;3.95;;;8.60;99.90;;;;;;5035536;28;20732;-64
2023/11/17 12:00:58;;;;;;;4.15;3.28;;;8.60;99.90;;;;;;5050858;28;20230;-65
2023/11/17 12:03:25;;;;;;;8.40;5.93;;;8.60;99.90;;;;;;5051157;28;20214;-64
2023/11/17 12:05:54;;;;;;;6.50;5.55;;;8.60;99.90;;;;;;5050887;28;20209;-64
2023/11/17 12:08:27;;;;;;;6.30;4.00;;;8.50;99.90;;;;;;5051010;28;20713;-64
2023/11/17 12:10:55;;;;;;;13.60;8.75;;;8.50;99.90;;;;;;5050743;28;20218;-64
2023/11/17 12:13:43;;;;;;;3.70;3.40;;;8.50;99.90;;;;;;5050789;28;20213;-63
2023/11/17 12:16:12;;;;;;;5.22;4.40;;;8.50;99.90;;;;;;5050673;28;20218;-64
2023/11/17 12:18:41;;;;;;;4.35;3.95;;;8.40;99.90;;;;;;5050899;28;20580;-64
2023/11/17 12:21:16;;;;;;;4.25;3.85;;;8.40;99.90;;;;;;5050550;28;20300;-64
2023/11/17 12:23:48;;;;;;;14.73;11.40;;;8.30;99.90;;;;;;5050439;28;20202;-64
2023/11/17 12:26:16;;;;;;;10.05;6.25;;;8.30;99.90;;;;;;5050286;28;20202;-65
2023/11/17 12:28:44;;;;;;;15.10;9.77;;;8.30;99.90;;;;;;5050521;28;20281;-65
2023/11/17 12:31:12;;;;;;;15.65;14.10;;;8.30;99.90;;;;;;5050486;28;20929;-65
2023/11/17 12:33:40;;;;;;;8.55;7.72;;;8.30;99.90;;;;;;5049271;28;20321;-64
2023/11/17 12:36:09;;;;;;;9.52;8.57;;;8.40;99.90;;;;;;5046704;28;20784;-65
2023/11/17 12:38:37;;;;;;;6.28;5.78;;;8.40;99.90;;;;;;5050233;28;20198;-65
2023/11/17 12:41:06;;;;;;;4.93;4.53;;;8.50;99.90;;;;;;5050074;28;20287;-65
2023/11/17 12:43:33;;;;;;;4.07;3.78;;;8.50;99.90;;;;;;5084042;22;20245;-64
2023/11/17 12:46:00;;;;;;;6.07;4.30;;;8.50;99.90;;;;;;5069126;28;20202;-64
2023/11/17 12:48:28;;;;;;;3.47;2.88;;;8.60;99.90;;;;;;5070210;28;20217;-64
2023/11/17 12:50:57;;;;;;;3.95;3.05;;;8.60;99.90;;;;;;5070889;28;20197;-64
2023/11/17 12:53:24;;;;;;;3.08;2.80;;;8.60;99.90;;;;;;5082780;28;20229;-63
2023/11/17 12:55:52;;;;;;;3.90;3.55;;;8.70;99.90;;;;;;5075115;28;20216;-65
2023/11/17 12:58:21;;;;;;;4.28;3.08;;;8.70;99.90;;;;;;5078731;28;20689;-65